Seward, Illinois
Current Conditions -  °F | °C
As of 11:35 PM on Friday 24 Oct 2014 (Local Time) from KFEP Reporting Station
Overcast Overcast  
Wind Chill: 57°   Ceiling: 3500
Heat Index: 57°   Visibility: 10mi
Dew Point: 53°   Wind: 6mph
Humidity: 85%   Direction: 240°WSW
Pressure: 29.95"   Gusts: NA
Location:  42.24°N, 89.36°W
Report Text: KFEP 250435Z AUTO 24005KT 10SM OVC035 14/12 A2995 RMK AO2 T01410117
Loading
Personal Weather Stations






























Interactive Weather Map
Tropical Storm Tracking
New forecast layout! Learn more

10-Day Weather Forecast

Advertisements
Track Severe Weather on mobile